Youngstown, OH (44501)

9:52 PM EDT on August 17, 2017 (GMT -0400)
Downtown Youngstown | | Change Station

Elev 873 ft 41.10 °N, 80.65 °W | Updated 6 seconds ago

Overcast
Overcast
76.0 °F
Feels Like 76 °F
N
6.0
Wind Variable Wind from SSE
Gusts 10.0 mph

Today
High -- | Low -- °F
--% Chance of Precip.
Yesterday
High -- | Low -- °F
Precip. -- in
Pressure 29.81 in
Visibility 10.0 miles
Clouds Mostly Cloudy 1500 ft
Mostly Cloudy 4000 ft
Overcast 10000 ft
Heat Index 76 °F
Dew Point 73 °F
Humidity 90%
Rainfall --
Snow Depth Not available.
6:34 AM 8:18 PM
Waning Crescent, 18% visible
METAR KYNG 180051Z 19008KT 10SM BKN015 BKN040 OVC100 24/23 A2984 RMK FUNNEL CLOUD B00E20 AO2 PK WND 34033/0000 WSHFT 2347 LTG DSNT NE AND E RAE21B24E41 TSE34 SLP095 P0005 T02440228
Pressure 29.81 in
Visibility 10.0 miles
Clouds Mostly Cloudy 1500 ft
Mostly Cloudy 4000 ft
Overcast 10000 ft
Heat Index 76 °F
Dew Point 73 °F
Humidity 90%
Rainfall --
Snow Depth Not available.
6:34 AM 8:18 PM
Waning Crescent, 18% visible
METAR KYNG 180051Z 19008KT 10SM BKN015 BKN040 OVC100 24/23 A2984 RMK FUNNEL CLOUD B00E20 AO2 PK WND 34033/0000 WSHFT 2347 LTG DSNT NE AND E RAE21B24E41 TSE34 SLP095 P0005 T02440228

Get Severe Weather Alerts

Thanks for signing up!

Be on the lookout for a verification email in your inbox.

You'll start receiving the daily forecast at 6 AM.

×

10-Day Weather Forecast

Almanac

Astronomy

Aug. 17, 2017 Rise Set
Actual Time
Civil Twilight
Nautical Twilight
Astronomical Twilight
Moon
Length of Visible Light
Length of Day
Tomorrow will be .
, % of the Moon is Illuminated

Today's Extremes

State Highs State Lows

Community

WunderPhotos

Category 6

Welcome to Category 6. This is the collective home for Weather Underground's featured writeups by Dr. Jeff Masters (right), Bob Henson (left), Chris Burt, and other regular contributors.

Nearby

Air Quality

  Air Quality AQ Index Pollutant
Not available.

Snow Depth

Station Depth Elevation

Earthquake Activity

City Distance Mag. Time & Date
Minimum magnitude displayed is 2.5.

Coastal Water Temperatures

Place Temperature

Stations

Nearby Weather Stations

Station Location Temp. Windchill Dew Point Humidity Wind Precip. Elev Updated Type
                   

Watches & Warnings

There are currently no watches in effect.